Forgan, Oklahoma
Current Conditions -  °F | °C
As of 6:35 PM on Saturday 25 Oct 2014 (Local Time) from KLBL Reporting Station
Clear Clear  
Wind Chill: 82°   Ceiling: Unl
Heat Index: 82°   Visibility: 10mi
Dew Point: 43°   Wind: 9mph
Humidity: 25%   Direction: 170°S
Pressure: 30"   Gusts: NA
Location:  36.91°N, 100.54°W
Report Text: KLBL 252335Z AUTO 17008KT 10SM CLR 28/06 A3000 RMK AO1
Loading
Personal Weather Stations






























Interactive Weather Map
Tropical Storm Tracking
New forecast layout! Learn more

10-Day Weather Forecast

Advertisements
Track Severe Weather on mobile